RYR34KC EPKK-LIEO
Flight info
| Callsign | RYR34KC |
|---|---|
| Flight time | N/A |
| Altitude | 24000 |
| Route | BABKO DCT VADEX L856 KOPAT/N0437F360 DCT MAREG DCT GIRDA DCT BAXON/N0438F370 DCT GITRI |
| Aircraft | B738/M-SDE2E3FGHIRWXY/LB1 |
Departure
| Time | 2026-05-05 10:06 |
|---|---|
| Airport | Kraków John Paul II International Airport (EPKK) |
Arrival
| Time | N/A |
|---|---|
| Airport | Olbia Costa Smeralda Airport (LIEO) |
| Time | Latitude | Longitude | Altitude | Speed | Heading |
|---|---|---|---|---|---|
| 2026-05-05 09:31 | 50.07272 | 19.79779 | 799 ft | 0 kts | 168° |
| 2026-05-05 09:56 | 50.07279 | 19.79777 | 799 ft | 4 kts | 167° |
| 2026-05-05 09:56 | 50.07304 | 19.79767 | 799 ft | 3 kts | 166° |
| 2026-05-05 09:56 | 50.07326 | 19.79760 | 799 ft | 4 kts | 171° |
| 2026-05-05 09:57 | 50.07352 | 19.79756 | 799 ft | 4 kts | 178° |
| 2026-05-05 09:57 | 50.07379 | 19.79756 | 799 ft | 4 kts | 184° |
| 2026-05-05 09:57 | 50.07406 | 19.79761 | 799 ft | 4 kts | 188° |
| 2026-05-05 09:57 | 50.07433 | 19.79767 | 799 ft | 4 kts | 183° |
| 2026-05-05 09:58 | 50.07449 | 19.79767 | 799 ft | 0 kts | 168° |
| 2026-05-05 10:01 | 50.07447 | 19.79767 | 799 ft | 3 kts | 168° |
| 2026-05-05 10:01 | 50.07414 | 19.79778 | 799 ft | 6 kts | 168° |
| 2026-05-05 10:02 | 50.07375 | 19.79805 | 799 ft | 7 kts | 127° |
| 2026-05-05 10:02 | 50.07378 | 19.79881 | 799 ft | 9 kts | 77° |
| 2026-05-05 10:02 | 50.07394 | 19.79990 | 799 ft | 12 kts | 77° |
| 2026-05-05 10:02 | 50.07415 | 19.80138 | 799 ft | 15 kts | 78° |
| 2026-05-05 10:03 | 50.07436 | 19.80284 | 799 ft | 13 kts | 77° |
| 2026-05-05 10:03 | 50.07472 | 19.80378 | 799 ft | 10 kts | 20° |
| 2026-05-05 10:03 | 50.07539 | 19.80410 | 799 ft | 10 kts | 17° |
| 2026-05-05 10:03 | 50.07618 | 19.80412 | 799 ft | 14 kts | 348° |
| 2026-05-05 10:04 | 50.07713 | 19.80381 | 799 ft | 14 kts | 346° |
| 2026-05-05 10:04 | 50.07803 | 19.80349 | 799 ft | 13 kts | 347° |
| 2026-05-05 10:04 | 50.07890 | 19.80320 | 799 ft | 13 kts | 347° |
| 2026-05-05 10:04 | 50.07984 | 19.80288 | 798 ft | 14 kts | 344° |
| 2026-05-05 10:05 | 50.08007 | 19.80167 | 799 ft | 13 kts | 259° |
| 2026-05-05 10:05 | 50.07977 | 19.79950 | 799 ft | 45 kts | 257° |
| 2026-05-05 10:05 | 50.07859 | 19.79102 | 800 ft | 114 kts | 258° |
| 2026-05-05 10:05 | 50.07657 | 19.77590 | 823 ft | 168 kts | 256° |
| 2026-05-05 10:06 | 50.07456 | 19.75759 | 1445 ft | 174 kts | 257° |
| 2026-05-05 10:06 | 50.07223 | 19.73914 | 2274 ft | 175 kts | 251° |
| 2026-05-05 10:06 | 50.06912 | 19.71942 | 2644 ft | 202 kts | 251° |
| 2026-05-05 10:06 | 50.06553 | 19.69678 | 2800 ft | 227 kts | 253° |
| 2026-05-05 10:07 | 50.06031 | 19.67312 | 3308 ft | 233 kts | 235° |
| 2026-05-05 10:07 | 50.04898 | 19.65607 | 4089 ft | 225 kts | 208° |
| 2026-05-05 10:07 | 50.03412 | 19.64702 | 4727 ft | 240 kts | 198° |
| 2026-05-05 10:07 | 50.01711 | 19.64565 | 5198 ft | 254 kts | 165° |
| 2026-05-05 10:08 | 50.00057 | 19.65451 | 6135 ft | 252 kts | 166° |
| 2026-05-05 10:08 | 49.98358 | 19.66178 | 6852 ft | 258 kts | 169° |
| 2026-05-05 10:08 | 49.96593 | 19.66833 | 7529 ft | 265 kts | 170° |
| 2026-05-05 10:08 | 49.94780 | 19.67465 | 8274 ft | 268 kts | 171° |
| 2026-05-05 10:09 | 49.92944 | 19.68092 | 9019 ft | 272 kts | 171° |
| 2026-05-05 10:09 | 49.91084 | 19.68718 | 9798 ft | 276 kts | 172° |
| 2026-05-05 10:09 | 49.89180 | 19.69339 | 10264 ft | 288 kts | 175° |
| 2026-05-05 10:09 | 49.87167 | 19.69135 | 10413 ft | 304 kts | 199° |
| 2026-05-05 10:10 | 49.85181 | 19.67710 | 10776 ft | 316 kts | 210° |
| 2026-05-05 10:10 | 49.83240 | 19.66006 | 11304 ft | 324 kts | 211° |
| 2026-05-05 10:10 | 49.81313 | 19.64297 | 12117 ft | 323 kts | 211° |
| 2026-05-05 10:10 | 49.79306 | 19.62527 | 12760 ft | 330 kts | 211° |
| 2026-05-05 10:11 | 49.77325 | 19.60797 | 13457 ft | 336 kts | 210° |
| 2026-05-05 10:11 | 49.75263 | 19.59011 | 14099 ft | 342 kts | 210° |
| 2026-05-05 10:11 | 49.73187 | 19.57220 | 14844 ft | 343 kts | 208° |
| 2026-05-05 10:11 | 49.71090 | 19.55425 | 15548 ft | 346 kts | 210° |
| 2026-05-05 10:12 | 49.68987 | 19.53622 | 16353 ft | 346 kts | 210° |
| 2026-05-05 10:12 | 49.66888 | 19.51825 | 17138 ft | 347 kts | 210° |
| 2026-05-05 10:12 | 49.64753 | 19.49997 | 17571 ft | 358 kts | 210° |
| 2026-05-05 10:12 | 49.62571 | 19.48134 | 18281 ft | 359 kts | 210° |
| 2026-05-05 10:13 | 49.60497 | 19.46003 | 18947 ft | 358 kts | 223° |
| 2026-05-05 10:13 | 49.58747 | 19.43233 | 19474 ft | 364 kts | 227° |
| 2026-05-05 10:13 | 49.57032 | 19.40367 | 20090 ft | 365 kts | 227° |
| 2026-05-05 10:13 | 49.55304 | 19.37468 | 20669 ft | 368 kts | 227° |
| 2026-05-05 10:14 | 49.53554 | 19.34556 | 21179 ft | 373 kts | 227° |
| 2026-05-05 10:14 | 49.51785 | 19.31635 | 21822 ft | 374 kts | 227° |
| 2026-05-05 10:14 | 49.49998 | 19.28704 | 22390 ft | 377 kts | 227° |
| 2026-05-05 10:14 | 49.48174 | 19.25725 | 22707 ft | 385 kts | 227° |
| 2026-05-05 10:15 | 49.46323 | 19.22713 | 23171 ft | 390 kts | 227° |
| 2026-05-05 10:15 | 49.44455 | 19.19683 | 23739 ft | 391 kts | 227° |
| 2026-05-05 10:15 | 49.42579 | 19.16644 | 24220 ft | 392 kts | 227° |
| 2026-05-05 10:15 | 49.40686 | 19.13581 | 24528 ft | 397 kts | 227° |
| 2026-05-05 10:16 | 49.38792 | 19.10521 | 25198 ft | 392 kts | 227° |
| 2026-05-05 10:16 | 49.36919 | 19.07499 | 25799 ft | 392 kts | 227° |
| 2026-05-05 10:16 | 49.35032 | 19.04455 | 26142 ft | 397 kts | 227° |
| 2026-05-05 10:16 | 49.33116 | 19.01369 | 26429 ft | 403 kts | 227° |
| 2026-05-05 10:17 | 49.31173 | 18.98244 | 26854 ft | 404 kts | 227° |
| 2026-05-05 10:17 | 49.29229 | 18.95121 | 27240 ft | 407 kts | 226° |
| 2026-05-05 10:17 | 49.27264 | 18.91968 | 27514 ft | 413 kts | 226° |
| 2026-05-05 10:17 | 49.25268 | 18.88768 | 27816 ft | 417 kts | 226° |
| 2026-05-05 10:18 | 49.23266 | 18.85563 | 28299 ft | 417 kts | 226° |
| 2026-05-05 10:18 | 49.21251 | 18.82338 | 28662 ft | 420 kts | 226° |
| 2026-05-05 10:18 | 49.19215 | 18.79086 | 28858 ft | 426 kts | 226° |
| 2026-05-05 10:18 | 49.17170 | 18.75826 | 29394 ft | 423 kts | 226° |
| 2026-05-05 10:19 | 49.15138 | 18.72590 | 29847 ft | 424 kts | 226° |
| 2026-05-05 10:19 | 49.13084 | 18.69321 | 29999 ft | 429 kts | 226° |
| 2026-05-05 10:19 | 49.11016 | 18.66031 | 30373 ft | 429 kts | 227° |
| 2026-05-05 10:19 | 49.09059 | 18.62622 | 30864 ft | 425 kts | 230° |
| 2026-05-05 10:20 | 49.07193 | 18.59120 | 31232 ft | 425 kts | 231° |
| 2026-05-05 10:20 | 49.05356 | 18.55596 | 31530 ft | 426 kts | 232° |
| 2026-05-05 10:20 | 49.03520 | 18.52059 | 31961 ft | 424 kts | 231° |
| 2026-05-05 10:20 | 49.01685 | 18.48540 | 32250 ft | 426 kts | 231° |
| 2026-05-05 10:21 | 48.99829 | 18.45003 | 32436 ft | 429 kts | 231° |
| 2026-05-05 10:21 | 48.97970 | 18.41479 | 32901 ft | 425 kts | 231° |
| 2026-05-05 10:21 | 48.96135 | 18.38019 | 33564 ft | 417 kts | 231° |
| 2026-05-05 10:21 | 48.94307 | 18.34581 | 33868 ft | 418 kts | 231° |
| 2026-05-05 10:22 | 48.92470 | 18.31134 | 34100 ft | 419 kts | 231° |
| 2026-05-05 10:22 | 48.90645 | 18.27715 | 34521 ft | 414 kts | 231° |
| 2026-05-05 10:22 | 48.88832 | 18.24324 | 34844 ft | 413 kts | 232° |
| 2026-05-05 10:22 | 48.87010 | 18.20919 | 34959 ft | 417 kts | 231° |
| 2026-05-05 10:23 | 48.85177 | 18.17498 | 35199 ft | 417 kts | 231° |
| 2026-05-05 10:23 | 48.83344 | 18.14081 | 35458 ft | 417 kts | 231° |
| 2026-05-05 10:23 | 48.81512 | 18.10670 | 35676 ft | 418 kts | 231° |
| 2026-05-05 10:23 | 48.79666 | 18.07237 | 35865 ft | 419 kts | 231° |
| 2026-05-05 10:24 | 48.77836 | 18.03838 | 36281 ft | 414 kts | 232° |
| 2026-05-05 10:24 | 48.76012 | 18.00456 | 36529 ft | 414 kts | 231° |
| 2026-05-05 10:24 | 48.74187 | 17.97075 | 36740 ft | 415 kts | 232° |
| 2026-05-05 10:24 | 48.72360 | 17.93695 | 36832 ft | 413 kts | 232° |
| 2026-05-05 10:25 | 48.68715 | 17.86965 | 36908 ft | 417 kts | 232° |
| 2026-05-05 10:25 | 48.65008 | 17.80135 | 36907 ft | 423 kts | 232° |
| 2026-05-05 10:26 | 48.61252 | 17.73234 | 36893 ft | 426 kts | 231° |
| 2026-05-05 10:26 | 48.57521 | 17.66399 | 36880 ft | 422 kts | 231° |
| 2026-05-05 10:27 | 48.53774 | 17.59551 | 36891 ft | 419 kts | 231° |
| 2026-05-05 10:27 | 48.50098 | 17.52849 | 36891 ft | 418 kts | 231° |
| 2026-05-05 10:28 | 48.46362 | 17.46055 | 36892 ft | 424 kts | 231° |
| 2026-05-05 10:28 | 48.42564 | 17.39162 | 36893 ft | 430 kts | 231° |
| 2026-05-05 10:29 | 48.38749 | 17.32262 | 36872 ft | 425 kts | 231° |
| 2026-05-05 10:29 | 48.34994 | 17.25488 | 36883 ft | 420 kts | 231° |
| 2026-05-05 10:30 | 48.31262 | 17.18770 | 36874 ft | 418 kts | 231° |
| 2026-05-05 10:30 | 48.27539 | 17.12086 | 36894 ft | 418 kts | 231° |
| 2026-05-05 10:31 | 48.23773 | 17.05341 | 36889 ft | 425 kts | 231° |
| 2026-05-05 10:31 | 48.19942 | 16.98517 | 36885 ft | 428 kts | 229° |
| 2026-05-05 10:32 | 48.15456 | 16.92751 | 36892 ft | 423 kts | 218° |
| 2026-05-05 10:32 | 48.10714 | 16.87570 | 36877 ft | 421 kts | 218° |
| 2026-05-05 10:33 | 48.05999 | 16.82402 | 36852 ft | 419 kts | 218° |
| 2026-05-05 10:33 | 48.01288 | 16.77212 | 36868 ft | 423 kts | 218° |
| 2026-05-05 10:34 | 47.96515 | 16.71950 | 36871 ft | 429 kts | 219° |
| 2026-05-05 10:34 | 47.91709 | 16.66665 | 36856 ft | 428 kts | 218° |
| 2026-05-05 10:35 | 47.86927 | 16.61420 | 36867 ft | 426 kts | 218° |
| 2026-05-05 10:35 | 47.82156 | 16.56199 | 36855 ft | 424 kts | 218° |
| 2026-05-05 10:36 | 47.78212 | 16.51891 | 36859 ft | 423 kts | 218° |
| 2026-05-05 10:36 | 47.73477 | 16.46726 | 36848 ft | 422 kts | 218° |
| 2026-05-05 10:37 | 47.68749 | 16.41583 | 36861 ft | 421 kts | 218° |
| 2026-05-05 10:37 | 47.64022 | 16.36457 | 36868 ft | 421 kts | 218° |
| 2026-05-05 10:38 | 47.59313 | 16.31361 | 36869 ft | 421 kts | 218° |
| 2026-05-05 10:38 | 47.54579 | 16.26244 | 36877 ft | 423 kts | 218° |
| 2026-05-05 10:39 | 47.49828 | 16.21127 | 36867 ft | 424 kts | 218° |
| 2026-05-05 10:39 | 47.45053 | 16.15993 | 36878 ft | 425 kts | 218° |
| 2026-05-05 10:40 | 47.40265 | 16.10856 | 36879 ft | 426 kts | 218° |
| 2026-05-05 10:40 | 47.35459 | 16.05715 | 36889 ft | 427 kts | 218° |
| 2026-05-05 10:41 | 47.30649 | 16.00580 | 36885 ft | 427 kts | 218° |
| 2026-05-05 10:41 | 47.25867 | 15.95484 | 36893 ft | 427 kts | 218° |
| 2026-05-05 10:42 | 47.18632 | 15.87799 | 36895 ft | 428 kts | 218° |
| 2026-05-05 10:43 | 47.13813 | 15.82694 | 36899 ft | 428 kts | 218° |
| 2026-05-05 10:43 | 47.08973 | 15.77580 | 36888 ft | 428 kts | 218° |
| 2026-05-05 10:44 | 47.04140 | 15.72485 | 36891 ft | 428 kts | 218° |
| 2026-05-05 10:44 | 46.99305 | 15.67398 | 36889 ft | 427 kts | 218° |
| 2026-05-05 10:45 | 46.94478 | 15.62332 | 36886 ft | 427 kts | 218° |
| 2026-05-05 10:45 | 46.89658 | 15.57285 | 36890 ft | 426 kts | 218° |
| 2026-05-05 10:46 | 46.84845 | 15.52257 | 36891 ft | 424 kts | 218° |
| 2026-05-05 10:46 | 46.80047 | 15.47255 | 36898 ft | 423 kts | 218° |
| 2026-05-05 10:47 | 46.75256 | 15.42272 | 36900 ft | 423 kts | 218° |
| 2026-05-05 10:47 | 46.70470 | 15.37305 | 36914 ft | 422 kts | 218° |
| 2026-05-05 10:48 | 46.65712 | 15.32377 | 36947 ft | 421 kts | 218° |
| 2026-05-05 10:48 | 46.60959 | 15.27467 | 36949 ft | 421 kts | 218° |
| 2026-05-05 10:49 | 46.56182 | 15.22541 | 36940 ft | 422 kts | 218° |
| 2026-05-05 10:49 | 46.51397 | 15.17618 | 36963 ft | 422 kts | 218° |
| 2026-05-05 10:50 | 46.46598 | 15.12693 | 36972 ft | 423 kts | 218° |
| 2026-05-05 10:50 | 46.41785 | 15.07764 | 36989 ft | 424 kts | 218° |
| 2026-05-05 10:51 | 46.36966 | 15.02838 | 36987 ft | 425 kts | 217° |
| 2026-05-05 10:51 | 46.32129 | 14.97906 | 36989 ft | 426 kts | 217° |
| 2026-05-05 10:52 | 46.27287 | 14.92979 | 36998 ft | 423 kts | 218° |
| 2026-05-05 10:52 | 46.22524 | 14.88146 | 37005 ft | 416 kts | 217° |
| 2026-05-05 10:53 | 46.17795 | 14.83361 | 37021 ft | 416 kts | 217° |
| 2026-05-05 10:53 | 46.13017 | 14.78526 | 37027 ft | 422 kts | 217° |
| 2026-05-05 10:54 | 46.08185 | 14.73649 | 37021 ft | 425 kts | 217° |
| 2026-05-05 10:54 | 46.03339 | 14.68771 | 37024 ft | 426 kts | 217° |
| 2026-05-05 10:55 | 45.98475 | 14.63887 | 37024 ft | 427 kts | 217° |
| 2026-05-05 10:55 | 45.93600 | 14.59002 | 37027 ft | 427 kts | 217° |
| 2026-05-05 10:56 | 45.88727 | 14.54131 | 37024 ft | 426 kts | 217° |
| 2026-05-05 10:56 | 45.83864 | 14.49280 | 37037 ft | 425 kts | 217° |
| 2026-05-05 10:57 | 45.79011 | 14.44449 | 37049 ft | 424 kts | 217° |
| 2026-05-05 10:57 | 45.74166 | 14.39636 | 37039 ft | 424 kts | 217° |
| 2026-05-05 10:58 | 45.69323 | 14.34836 | 37055 ft | 423 kts | 217° |
| 2026-05-05 10:58 | 45.64516 | 14.30082 | 37046 ft | 423 kts | 217° |
| 2026-05-05 10:59 | 45.59684 | 14.25314 | 37059 ft | 422 kts | 217° |
| 2026-05-05 10:59 | 45.54849 | 14.20553 | 37056 ft | 422 kts | 217° |
| 2026-05-05 11:00 | 45.50014 | 14.15801 | 37073 ft | 422 kts | 217° |
| 2026-05-05 11:00 | 45.44955 | 14.11533 | 37083 ft | 425 kts | 207° |
| 2026-05-05 11:01 | 45.39549 | 14.08103 | 37072 ft | 426 kts | 206° |
| 2026-05-05 11:01 | 45.34136 | 14.04696 | 37059 ft | 426 kts | 206° |
| 2026-05-05 11:02 | 45.28724 | 14.01251 | 37052 ft | 427 kts | 207° |
| 2026-05-05 11:02 | 45.23311 | 13.97786 | 37067 ft | 427 kts | 207° |
| 2026-05-05 11:03 | 45.17888 | 13.94316 | 37059 ft | 428 kts | 207° |
| 2026-05-05 11:03 | 45.12459 | 13.90849 | 37065 ft | 428 kts | 207° |
| 2026-05-05 11:04 | 45.07027 | 13.87389 | 37071 ft | 429 kts | 207° |
| 2026-05-05 11:04 | 45.01582 | 13.83928 | 37056 ft | 429 kts | 207° |
| 2026-05-05 11:05 | 44.96131 | 13.80470 | 37054 ft | 430 kts | 207° |
| 2026-05-05 11:05 | 44.90691 | 13.77027 | 37051 ft | 429 kts | 207° |
| 2026-05-05 11:06 | 44.85276 | 13.73606 | 37046 ft | 429 kts | 207° |
| 2026-05-05 11:06 | 44.80215 | 13.70416 | 37058 ft | 428 kts | 207° |
| 2026-05-05 11:07 | 44.75421 | 13.67400 | 37047 ft | 427 kts | 207° |
| 2026-05-05 11:07 | 44.70343 | 13.64211 | 37050 ft | 427 kts | 207° |
| 2026-05-05 11:08 | 44.64919 | 13.60811 | 37053 ft | 427 kts | 207° |
| 2026-05-05 11:08 | 44.59501 | 13.57423 | 37052 ft | 427 kts | 207° |
| 2026-05-05 11:09 | 44.54074 | 13.54036 | 37032 ft | 427 kts | 208° |
| 2026-05-05 11:09 | 44.48687 | 13.50682 | 37042 ft | 427 kts | 208° |
| 2026-05-05 11:10 | 44.43251 | 13.47300 | 37043 ft | 428 kts | 208° |
| 2026-05-05 11:10 | 44.38231 | 13.42998 | 37042 ft | 422 kts | 220° |
| 2026-05-05 11:11 | 44.33494 | 13.38112 | 37033 ft | 423 kts | 220° |
| 2026-05-05 11:11 | 44.28744 | 13.33243 | 37032 ft | 424 kts | 220° |
| 2026-05-05 11:12 | 44.23967 | 13.28396 | 37029 ft | 425 kts | 219° |
| 2026-05-05 11:12 | 44.19179 | 13.23565 | 37025 ft | 425 kts | 220° |
| 2026-05-05 11:13 | 44.14383 | 13.18741 | 37031 ft | 427 kts | 220° |
| 2026-05-05 11:13 | 44.09562 | 13.13902 | 37020 ft | 427 kts | 220° |
| 2026-05-05 11:14 | 44.04743 | 13.09075 | 37017 ft | 426 kts | 220° |
| 2026-05-05 11:14 | 43.99955 | 13.04290 | 37009 ft | 422 kts | 220° |
| 2026-05-05 11:15 | 43.95207 | 12.99554 | 37011 ft | 419 kts | 220° |
| 2026-05-05 11:15 | 43.90487 | 12.94854 | 37015 ft | 416 kts | 220° |
| 2026-05-05 11:16 | 43.85798 | 12.90194 | 37008 ft | 414 kts | 220° |
| 2026-05-05 11:16 | 43.81126 | 12.85559 | 37022 ft | 414 kts | 220° |
| 2026-05-05 11:17 | 43.76442 | 12.80921 | 37020 ft | 414 kts | 220° |
| 2026-05-05 11:17 | 43.71749 | 12.76283 | 37018 ft | 416 kts | 220° |
| 2026-05-05 11:18 | 43.67027 | 12.71627 | 37024 ft | 418 kts | 220° |
| 2026-05-05 11:18 | 43.62316 | 12.66990 | 37019 ft | 419 kts | 220° |
| 2026-05-05 11:19 | 43.57528 | 12.62287 | 37037 ft | 420 kts | 220° |
| 2026-05-05 11:19 | 43.52761 | 12.57615 | 37026 ft | 420 kts | 219° |
| 2026-05-05 11:20 | 43.48028 | 12.52985 | 37049 ft | 420 kts | 219° |
| 2026-05-05 11:20 | 43.43261 | 12.48333 | 37043 ft | 419 kts | 219° |
| 2026-05-05 11:21 | 43.38510 | 12.43704 | 37045 ft | 418 kts | 219° |
| 2026-05-05 11:21 | 43.33804 | 12.39125 | 37050 ft | 415 kts | 220° |
| 2026-05-05 11:22 | 43.29103 | 12.34553 | 37058 ft | 413 kts | 220° |
| 2026-05-05 11:22 | 43.24423 | 12.30016 | 37063 ft | 411 kts | 220° |
| 2026-05-05 11:23 | 43.19750 | 12.25498 | 37061 ft | 411 kts | 220° |
| 2026-05-05 11:23 | 43.15083 | 12.20994 | 37049 ft | 410 kts | 220° |
| 2026-05-05 11:24 | 43.10421 | 12.16504 | 37044 ft | 410 kts | 219° |
| 2026-05-05 11:24 | 43.06537 | 12.12769 | 37051 ft | 411 kts | 219° |
| 2026-05-05 11:25 | 43.01856 | 12.08276 | 37053 ft | 412 kts | 219° |
| 2026-05-05 11:25 | 42.97162 | 12.03777 | 37060 ft | 413 kts | 219° |
| 2026-05-05 11:26 | 42.92449 | 11.99270 | 37053 ft | 414 kts | 219° |
| 2026-05-05 11:26 | 42.87736 | 11.94772 | 37046 ft | 413 kts | 219° |
| 2026-05-05 11:27 | 42.83043 | 11.90303 | 37049 ft | 412 kts | 219° |
| 2026-05-05 11:27 | 42.78351 | 11.85842 | 37050 ft | 411 kts | 219° |
| 2026-05-05 11:28 | 42.73680 | 11.81410 | 37051 ft | 409 kts | 219° |
| 2026-05-05 11:28 | 42.69025 | 11.77001 | 37052 ft | 407 kts | 219° |
| 2026-05-05 11:29 | 42.64382 | 11.72611 | 37070 ft | 407 kts | 219° |
| 2026-05-05 11:29 | 42.59722 | 11.68210 | 37052 ft | 410 kts | 219° |
| 2026-05-05 11:30 | 42.55026 | 11.63784 | 37057 ft | 411 kts | 219° |
| 2026-05-05 11:30 | 42.50342 | 11.59384 | 37036 ft | 407 kts | 219° |
| 2026-05-05 11:31 | 42.45724 | 11.55052 | 37036 ft | 403 kts | 219° |
| 2026-05-05 11:31 | 42.41142 | 11.50762 | 37037 ft | 398 kts | 219° |
| 2026-05-05 11:32 | 42.36600 | 11.46515 | 37042 ft | 395 kts | 219° |
| 2026-05-05 11:32 | 42.32089 | 11.42302 | 37046 ft | 398 kts | 219° |
| 2026-05-05 11:33 | 42.27644 | 11.38155 | 37051 ft | 406 kts | 219° |
| 2026-05-05 11:33 | 42.22992 | 11.33828 | 37032 ft | 406 kts | 219° |
| 2026-05-05 11:34 | 42.18350 | 11.29521 | 37017 ft | 405 kts | 218° |
| 2026-05-05 11:34 | 42.13716 | 11.25228 | 37026 ft | 403 kts | 218° |
| 2026-05-05 11:35 | 42.09092 | 11.20950 | 37026 ft | 403 kts | 218° |
| 2026-05-05 11:35 | 42.04472 | 11.16684 | 37014 ft | 402 kts | 219° |
| 2026-05-05 11:36 | 41.99860 | 11.12433 | 37025 ft | 402 kts | 219° |
| 2026-05-05 11:36 | 41.95247 | 11.08188 | 37017 ft | 401 kts | 219° |
| 2026-05-05 11:36 | 41.92966 | 11.06095 | 36742 ft | 395 kts | 219° |
| 2026-05-05 11:37 | 41.90699 | 11.04014 | 36105 ft | 396 kts | 219° |
| 2026-05-05 11:37 | 41.88414 | 11.01916 | 35364 ft | 400 kts | 219° |
| 2026-05-05 11:37 | 41.86114 | 10.99806 | 34796 ft | 400 kts | 219° |
| 2026-05-05 11:37 | 41.83831 | 10.97717 | 34435 ft | 395 kts | 219° |
| 2026-05-05 11:38 | 41.81607 | 10.95685 | 34078 ft | 390 kts | 219° |
| 2026-05-05 11:38 | 41.79375 | 10.93647 | 33607 ft | 387 kts | 219° |
| 2026-05-05 11:38 | 41.77156 | 10.91621 | 33097 ft | 385 kts | 219° |
| 2026-05-05 11:38 | 41.74954 | 10.89610 | 32612 ft | 383 kts | 219° |
| 2026-05-05 11:39 | 41.72756 | 10.87606 | 32152 ft | 380 kts | 219° |
| 2026-05-05 11:39 | 41.70581 | 10.85625 | 31703 ft | 378 kts | 219° |
| 2026-05-05 11:39 | 41.68416 | 10.83654 | 31262 ft | 375 kts | 219° |
| 2026-05-05 11:39 | 41.66264 | 10.81697 | 30844 ft | 373 kts | 219° |
| 2026-05-05 11:40 | 41.64124 | 10.79752 | 30420 ft | 371 kts | 219° |
| 2026-05-05 11:40 | 41.61995 | 10.77819 | 29973 ft | 369 kts | 219° |
| 2026-05-05 11:40 | 41.59878 | 10.75897 | 29473 ft | 367 kts | 219° |
| 2026-05-05 11:40 | 41.57769 | 10.73986 | 28971 ft | 365 kts | 219° |
| 2026-05-05 11:41 | 41.55676 | 10.72089 | 28462 ft | 363 kts | 219° |
| 2026-05-05 11:41 | 41.53589 | 10.70200 | 27978 ft | 362 kts | 219° |
| 2026-05-05 11:41 | 41.51508 | 10.68318 | 27510 ft | 360 kts | 218° |
| 2026-05-05 11:41 | 41.49440 | 10.66450 | 27046 ft | 358 kts | 218° |
| 2026-05-05 11:42 | 41.47379 | 10.64588 | 26595 ft | 357 kts | 218° |
| 2026-05-05 11:42 | 41.45330 | 10.62740 | 26156 ft | 355 kts | 218° |
| 2026-05-05 11:42 | 41.43284 | 10.60895 | 25722 ft | 354 kts | 218° |
| 2026-05-05 11:42 | 41.41250 | 10.59063 | 25282 ft | 353 kts | 218° |
| 2026-05-05 11:43 | 41.39219 | 10.57234 | 24860 ft | 352 kts | 218° |
| 2026-05-05 11:43 | 41.37192 | 10.55411 | 24456 ft | 350 kts | 218° |
| 2026-05-05 11:43 | 41.35179 | 10.53602 | 24052 ft | 349 kts | 218° |
| 2026-05-05 11:43 | 41.33167 | 10.51795 | 23646 ft | 348 kts | 218° |
| 2026-05-05 11:44 | 41.31160 | 10.49994 | 23186 ft | 347 kts | 218° |
| 2026-05-05 11:44 | 41.29169 | 10.48209 | 22772 ft | 344 kts | 217° |
| 2026-05-05 11:44 | 41.27191 | 10.46438 | 22383 ft | 341 kts | 217° |
| 2026-05-05 11:44 | 41.25254 | 10.44704 | 21986 ft | 339 kts | 217° |
| 2026-05-05 11:45 | 41.23306 | 10.42961 | 21567 ft | 337 kts | 217° |
| 2026-05-05 11:45 | 41.21341 | 10.41204 | 21168 ft | 335 kts | 217° |
| 2026-05-05 11:45 | 41.19434 | 10.39500 | 20779 ft | 333 kts | 217° |
| 2026-05-05 11:45 | 41.17518 | 10.37790 | 20403 ft | 331 kts | 217° |
| 2026-05-05 11:46 | 41.15587 | 10.36068 | 20008 ft | 329 kts | 217° |
| 2026-05-05 11:46 | 41.13714 | 10.34399 | 19641 ft | 328 kts | 217° |
| 2026-05-05 11:46 | 41.11801 | 10.32695 | 19277 ft | 326 kts | 217° |
| 2026-05-05 11:46 | 41.09948 | 10.31045 | 18906 ft | 324 kts | 216° |
| 2026-05-05 11:47 | 41.08076 | 10.29381 | 18556 ft | 323 kts | 216° |
| 2026-05-05 11:47 | 41.06218 | 10.27730 | 18181 ft | 321 kts | 216° |
| 2026-05-05 11:47 | 41.04367 | 10.26087 | 17778 ft | 319 kts | 216° |
| 2026-05-05 11:47 | 41.02529 | 10.24457 | 17399 ft | 317 kts | 216° |
| 2026-05-05 11:48 | 40.98886 | 10.21228 | 16646 ft | 313 kts | 216° |
| 2026-05-05 11:48 | 40.97080 | 10.19628 | 16292 ft | 311 kts | 216° |
| 2026-05-05 11:48 | 40.95287 | 10.18039 | 15922 ft | 310 kts | 216° |
| 2026-05-05 11:49 | 40.93648 | 10.16233 | 15546 ft | 306 kts | 232° |
| 2026-05-05 11:49 | 40.92539 | 10.13854 | 15193 ft | 303 kts | 247° |
| 2026-05-05 11:49 | 40.91958 | 10.11183 | 14849 ft | 302 kts | 257° |
| 2026-05-05 11:49 | 40.91550 | 10.08468 | 14497 ft | 301 kts | 258° |
| 2026-05-05 11:50 | 40.91162 | 10.05753 | 14144 ft | 300 kts | 258° |
| 2026-05-05 11:50 | 40.90773 | 10.03050 | 13802 ft | 298 kts | 258° |
| 2026-05-05 11:50 | 40.90380 | 10.00376 | 13463 ft | 295 kts | 258° |
| 2026-05-05 11:50 | 40.89981 | 9.97715 | 13076 ft | 294 kts | 258° |
| 2026-05-05 11:51 | 40.89579 | 9.95069 | 12684 ft | 293 kts | 257° |
| 2026-05-05 11:51 | 40.89175 | 9.92432 | 12326 ft | 292 kts | 257° |
| 2026-05-05 11:51 | 40.88771 | 9.89810 | 11971 ft | 290 kts | 257° |
| 2026-05-05 11:51 | 40.88368 | 9.87202 | 11617 ft | 289 kts | 257° |
| 2026-05-05 11:52 | 40.87966 | 9.84619 | 11408 ft | 283 kts | 257° |
| 2026-05-05 11:52 | 40.87576 | 9.82107 | 11242 ft | 276 kts | 257° |
| 2026-05-05 11:52 | 40.87193 | 9.79644 | 10955 ft | 273 kts | 257° |
| 2026-05-05 11:52 | 40.86809 | 9.77182 | 10647 ft | 272 kts | 257° |
| 2026-05-05 11:53 | 40.86433 | 9.74769 | 10542 ft | 263 kts | 257° |
| 2026-05-05 11:53 | 40.86065 | 9.72444 | 10446 ft | 255 kts | 255° |
| 2026-05-05 11:53 | 40.85328 | 9.70378 | 10283 ft | 248 kts | 235° |
| 2026-05-05 11:53 | 40.84335 | 9.68532 | 10047 ft | 246 kts | 236° |
| 2026-05-05 11:54 | 40.83360 | 9.66671 | 9766 ft | 246 kts | 236° |
| 2026-05-05 11:54 | 40.82403 | 9.64838 | 9483 ft | 245 kts | 236° |
| 2026-05-05 11:54 | 40.81437 | 9.62989 | 9216 ft | 244 kts | 236° |
| 2026-05-05 11:54 | 40.80475 | 9.61149 | 8939 ft | 243 kts | 236° |
| 2026-05-05 11:55 | 40.79512 | 9.59311 | 8657 ft | 243 kts | 236° |
| 2026-05-05 11:55 | 40.78558 | 9.57484 | 8398 ft | 241 kts | 236° |
| 2026-05-05 11:55 | 40.77606 | 9.55663 | 8145 ft | 241 kts | 236° |
| 2026-05-05 11:55 | 40.76654 | 9.53845 | 7919 ft | 240 kts | 236° |
| 2026-05-05 11:56 | 40.75705 | 9.52033 | 7619 ft | 240 kts | 236° |
| 2026-05-05 11:56 | 40.74759 | 9.50227 | 7408 ft | 237 kts | 236° |
| 2026-05-05 11:56 | 40.73816 | 9.48431 | 7098 ft | 239 kts | 236° |
| 2026-05-05 11:56 | 40.72887 | 9.46664 | 6989 ft | 230 kts | 236° |
| 2026-05-05 11:57 | 40.71987 | 9.44954 | 6782 ft | 224 kts | 236° |
| 2026-05-05 11:57 | 40.71272 | 9.43190 | 6602 ft | 216 kts | 257° |
| 2026-05-05 11:57 | 40.71298 | 9.41244 | 6255 ft | 216 kts | 284° |
| 2026-05-05 11:57 | 40.71966 | 9.39476 | 6173 ft | 222 kts | 305° |
| 2026-05-05 11:58 | 40.73172 | 9.38140 | 6068 ft | 230 kts | 325° |
| 2026-05-05 11:58 | 40.74507 | 9.37067 | 6019 ft | 220 kts | 325° |
| 2026-05-05 11:58 | 40.75774 | 9.36049 | 6008 ft | 207 kts | 325° |
| 2026-05-05 11:58 | 40.76976 | 9.35081 | 5987 ft | 199 kts | 324° |
| 2026-05-05 11:59 | 40.78139 | 9.34140 | 6015 ft | 195 kts | 324° |
| 2026-05-05 11:59 | 40.79416 | 9.33454 | 5731 ft | 213 kts | 351° |
| 2026-05-05 11:59 | 40.80981 | 9.33834 | 4927 ft | 243 kts | 23° |
| 2026-05-05 11:59 | 40.82297 | 9.35197 | 4333 ft | 248 kts | 53° |
| 2026-05-05 12:00 | 40.83299 | 9.37114 | 3829 ft | 250 kts | 60° |
| 2026-05-05 12:00 | 40.84111 | 9.39191 | 3095 ft | 253 kts | 64° |
| 2026-05-05 12:00 | 40.84705 | 9.41400 | 2286 ft | 255 kts | 72° |
| 2026-05-05 12:00 | 40.85305 | 9.43562 | 1646 ft | 244 kts | 58° |
| 2026-05-05 12:01 | 40.86288 | 9.45297 | 1072 ft | 229 kts | 50° |
| 2026-05-05 12:01 | 40.87242 | 9.46885 | 754 ft | 209 kts | 51° |
| 2026-05-05 12:01 | 40.88058 | 9.48328 | 532 ft | 183 kts | 57° |
| 2026-05-05 12:01 | 40.88740 | 9.49615 | 289 ft | 163 kts | 57° |
| 2026-05-05 12:02 | 40.89356 | 9.50776 | 56 ft | 145 kts | 58° |
| 2026-05-05 12:02 | 40.89869 | 9.51771 | 31 ft | 117 kts | 57° |
| 2026-05-05 12:02 | 40.90195 | 9.52391 | 34 ft | 62 kts | 54° |